Lake Worth, FL

4:07 PM EDT on August 02, 2015 (GMT -0400)
Chestnut Hill | | Change Station
CLOSE
Current Station
Personal Weather Station
Location: Lake Worth, FL
Elevation: 17 ft
Nearby Weather Stations

Elev 17 ft 26.60 °N, 80.13 °W | Updated 3 minutes ago

Overcast
Overcast
83.5 °F
Feels Like 92 °F
N
2.2
Wind Variable Wind from WNW

Today
High -- | Low -- °F
--% Chance of Precip.
Yesterday
High -- | Low -- °F
Precip. -- in
6:45 AM 8:07 PM
Waning Gibbous, 92% visible
Pressure 29.97 in
Visibility 10.0 miles
Clouds Few 3000 ft
Scattered Clouds 6000 ft
Mostly Cloudy 14000 ft
Heat Index 92 °F
Dew Point 76 °F
Humidity 77%
Rainfall 0.00 in
Snow Depth Not available.
UV 6 out of 12
Pollen 3.40 out of 12
Air Quality Not available.
Flu Activity Not available.
METAR KPBI 021953Z 21006KT 10SM FEW030 SCT060 BKN140 29/23 A2997 RMK AO2 TSE22 SLP147 T02890228

More Conditions Fewer Conditions

Pressure 29.97 in
Visibility 10.0 miles
Clouds Few 3000 ft
Scattered Clouds 6000 ft
Mostly Cloudy 14000 ft
Heat Index 92 °F
Dew Point 76 °F
Humidity 77%
Rainfall 0.00 in
Snow Depth Not available.
UV 6 out of 12
Pollen 3.40 out of 12
Air Quality Not available.
Flu Activity Not available.
METAR KPBI 021953Z 21006KT 10SM FEW030 SCT060 BKN140 29/23 A2997 RMK AO2 TSE22 SLP147 T02890228

More Conditions Fewer Conditions

Nowcast | as of 2:23 PM EDT on August 2, 2015

Through 5 PM, showers and thunderstorms will move north and be most concentrated over inland sections of Miami-Dade, Broward and Palm Beach counties, as well as over southwest Florida from the Immokalee area across Hendry County to eastern Glades County and Lake Okeechobee. Gusty winds to 40 mph, occasional lightning and very heavy rain will accompany the stronger showers and storms. Although the bulk of the rainfall will be inland, a few showers or thunderstorms will affect Metro Southeast Florida primarily in Broward and Palm Beach counties. Elsewhere, including most of coastal sections of Miami-Dade and Collier counties, mostly dry conditions will prevail.

×

10-Day Weather Forecast

×

Almanac

Astronomy

Aug. 02, 2015 Rise Set
Actual Time
Civil Twilight
Nautical Twilight
Astronomical Twilight
Moon
Length of Visible Light
Length of Day
Tomorrow will be .
, % of the Moon is Illuminated

Today's Extremes

State Highs State Lows

Community

WunderPhotos

Upload Photos

1,843,356 photos uploaded!

WunderBlogs® & News

Nearby

Air Quality

  Air Quality AQ Index Pollutant
Not available.

Snow Depth

Station Depth Elevation

Earthquake Activity

City Distance Mag. Time & Date
Minimum magnitude displayed is 2.5.

Coastal Water Temperatures

Place Temperature

Stations

Nearby Weather Stations

Station Location Temp. Windchill Dew Point Humidity Wind Precip. Elev Updated Type